Time;durP1;ratioP1;P1;durP2;ratioP2;P2;SDS_P1;SDS_P2;PMS_P1;PMS_P2;Temp;Humidity;BMP_temperature;BMP_pressure;BME280_temperature;BME280_humidity;BME280_pressure;Samples;Min_cycle;Max_cycle;Signal;HPM_P1;HPM_P2
2021/06/08 00:00:31;;;;;;;8.03;5.10;;;;;;;15.99;78.56;100126.28;1794617;78;22246;-74
2021/06/08 00:02:58;;;;;;;7.67;5.57;;;;;;;15.98;78.63;100118.48;1819960;78;22162;-73
2021/06/08 00:05:24;;;;;;;7.27;5.23;;;;;;;15.97;78.78;100115.00;1809669;76;21746;-72
2021/06/08 00:07:51;;;;;;;6.73;5.30;;;;;;;15.96;78.88;100116.11;1828013;76;21773;-73
2021/06/08 00:10:18;;;;;;;6.77;5.03;;;;;;;15.93;79.05;100120.20;1830755;78;21671;-73
2021/06/08 00:12:44;;;;;;;7.07;5.27;;;;;;;15.91;79.31;100121.05;1816074;76;21694;-73
2021/06/08 00:15:11;;;;;;;8.07;5.20;;;;;;;15.87;79.49;100120.61;1790837;78;21656;-74
2021/06/08 00:17:37;;;;;;;6.20;5.13;;;;;;;15.87;79.76;100123.31;1829610;76;21704;-73
2021/06/08 00:20:07;;;;;;;5.90;4.93;;;;;;;15.85;79.97;100121.45;1831207;76;21781;-73
2021/06/08 00:22:34;;;;;;;7.87;5.07;;;;;;;15.85;80.18;100130.88;1753699;78;21705;-73
2021/06/08 00:25:01;;;;;;;7.90;5.30;;;;;;;15.83;80.45;100125.81;1830033;76;22308;-73
2021/06/08 00:27:27;;;;;;;7.50;5.00;;;;;;;15.79;80.63;100121.31;1829800;78;21750;-73
2021/06/08 00:29:54;;;;;;;6.43;5.00;;;;;;;15.78;80.77;100113.79;1797657;78;21678;-73
2021/06/08 00:32:21;;;;;;;6.67;5.20;;;;;;;15.78;80.88;100117.04;1825331;76;22226;-73
2021/06/08 00:34:47;;;;;;;8.63;5.33;;;;;;;15.73;81.00;100115.27;1824682;76;21697;-73
2021/06/08 00:37:14;;;;;;;8.27;5.37;;;;;;;15.69;81.09;100119.11;1799880;78;21745;-73
2021/06/08 00:39:40;;;;;;;7.53;5.60;;;;;;;15.66;81.17;100112.98;1817431;76;21769;-73
2021/06/08 00:42:07;;;;;;;7.80;5.40;;;;;;;15.65;81.32;100119.41;1823970;76;22256;-73
2021/06/08 00:44:34;;;;;;;7.93;5.40;;;;;;;15.65;81.43;100114.03;1825691;77;22243;-73
2021/06/08 00:47:01;;;;;;;7.70;5.37;;;;;;;15.67;81.52;100124.55;1829171;76;21699;-73
2021/06/08 00:49:27;;;;;;;6.97;5.07;;;;;;;15.67;81.48;100127.23;1821473;76;21745;-73
2021/06/08 00:51:54;;;;;;;6.80;5.30;;;;;;;15.69;81.40;100125.84;1812650;76;21857;-73
2021/06/08 00:54:21;;;;;;;6.97;5.57;;;;;;;15.70;81.32;100121.25;1820340;76;21741;-73
2021/06/08 00:56:47;;;;;;;10.73;5.83;;;;;;;15.72;81.23;100121.72;1810503;76;21755;-73
2021/06/08 00:59:14;;;;;;;8.63;5.63;;;;;;;15.70;81.12;100122.05;1829918;76;21818;-73
2021/06/08 01:01:41;;;;;;;7.50;5.13;;;;;;;15.69;81.04;100121.80;1827165;76;21716;-73
2021/06/08 01:04:10;;;;;;;8.03;5.70;;;;;;;15.72;81.04;100115.00;1825085;76;22284;-73
2021/06/08 01:06:38;;;;;;;7.10;5.60;;;;;;;15.72;81.00;100121.72;1795549;79;21739;-74
2021/06/08 01:09:07;;;;;;;7.73;5.57;;;;;;;15.75;80.96;100125.72;1835119;77;21773;-73
2021/06/08 01:11:35;;;;;;;7.33;5.40;;;;;;;15.75;80.93;100127.06;1795400;79;21706;-73
2021/06/08 01:14:02;;;;;;;7.67;5.20;;;;;;;15.70;80.98;100126.08;1820263;77;21715;-73
2021/06/08 01:16:30;;;;;;;6.67;5.77;;;;;;;15.62;81.08;100127.30;1806735;78;21692;-73
2021/06/08 01:18:57;;;;;;;8.13;5.87;;;;;;;15.57;81.17;100128.20;1824027;76;21742;-73
2021/06/08 01:21:24;;;;;;;8.17;5.43;;;;;;;15.56;81.27;100121.20;1795918;78;21737;-73
2021/06/08 01:23:51;;;;;;;7.87;5.60;;;;;;;15.57;81.35;100119.34;1824793;76;21691;-73
2021/06/08 01:26:21;;;;;;;7.03;5.23;;;;;;;15.57;81.34;100125.52;1830352;76;21695;-73
2021/06/08 01:28:46;;;;;;;6.97;5.50;;;;;;;15.54;81.46;100126.11;1836332;76;21694;-73
2021/06/08 01:31:15;;;;;;;6.37;5.77;;;;;;;15.50;81.58;100127.82;1769113;78;22228;-74
2021/06/08 01:33:44;;;;;;;7.23;5.73;;;;;;;15.46;81.76;100136.22;1800026;78;21694;-73
2021/06/08 01:36:19;;;;;;;7.87;5.80;;;;;;;15.39;81.89;100133.93;1798328;78;22137;-74
2021/06/08 01:38:46;;;;;;;7.07;6.13;;;;;;;15.35;82.11;100133.49;1827384;76;21775;-73
2021/06/08 01:41:13;;;;;;;9.00;5.97;;;;;;;15.34;82.30;100136.73;1795369;78;21714;-73
2021/06/08 01:43:41;;;;;;;9.70;5.77;;;;;;;15.32;82.49;100132.19;1793373;78;22173;-74
2021/06/08 01:46:08;;;;;;;9.13;6.23;;;;;;;15.28;82.69;100136.58;1788529;78;21828;-73
2021/06/08 01:48:36;;;;;;;10.93;6.70;;;;;;;15.17;82.79;100135.98;1831329;78;21802;-72
2021/06/08 01:51:46;;;;;;;9.83;6.60;;;;;;;15.17;82.79;100135.98;1822648;76;21728;-72
2021/06/08 01:54:45;;;;;;;9.67;6.63;;;;;;;15.13;83.39;100135.52;1825875;76;21701;-72
2021/06/08 01:57:46;;;;;;;10.63;6.50;;;;;;;15.05;83.66;100135.66;1812194;76;21756;-73
2021/06/08 02:00:17;;;;;;;8.70;6.50;;;;;;;14.99;84.08;100136.30;1819335;76;21769;-73
2021/06/08 02:03:07;;;;;;;8.23;6.67;;;;;;;14.94;84.16;100139.09;1818300;77;21736;-73
2021/06/08 02:05:50;;;;;;;8.23;6.57;;;;;;;14.89;84.59;100143.20;1816322;77;21101;-73
2021/06/08 02:08:59;;;;;;;7.90;7.10;;;;;;;14.89;84.59;100143.20;1820410;77;21682;-73
2021/06/08 02:11:51;;;;;;;8.03;6.10;;;;;;;14.91;85.14;100146.41;1824336;77;21686;-73
2021/06/08 02:14:26;;;;;;;8.73;6.70;;;;;;;14.92;85.33;100145.84;1808845;77;21739;-72
2021/06/08 02:16:55;;;;;;;8.97;6.87;;;;;;;14.91;85.41;100148.30;1816756;77;21137;-72
2021/06/08 02:19:23;;;;;;;8.40;6.80;;;;;;;14.90;85.51;100142.09;1830648;76;21738;-73
2021/06/08 02:21:57;;;;;;;9.30;7.23;;;;;;;14.94;85.57;100143.67;1804344;78;21727;-73
2021/06/08 02:24:25;;;;;;;7.50;6.73;;;;;;;14.93;85.58;100152.81;1823231;77;22296;-73
2021/06/08 02:26:56;;;;;;;7.83;6.63;;;;;;;14.98;85.31;100164.84;1821560;76;21778;-74
2021/06/08 02:29:23;;;;;;;9.23;6.75;;;;;;;14.98;85.31;100164.84;1796181;78;21550;-74
2021/06/08 02:31:50;;;;;;;10.93;7.40;;;;;;;14.99;85.56;100161.84;1832523;76;21645;-74
2021/06/08 02:34:17;;;;;;;8.23;7.37;;;;;;;15.01;85.55;100160.22;1797918;78;21768;-74
2021/06/08 02:36:44;;;;;;;9.17;7.30;;;;;;;15.03;85.16;100157.22;1798711;78;21695;-74
2021/06/08 02:39:11;;;;;;;8.83;7.00;;;;;;;15.03;85.16;100157.22;1799202;78;22067;-74
2021/06/08 02:41:39;;;;;;;12.57;7.40;;;;;;;15.00;85.37;100158.08;1818939;78;21680;-74
2021/06/08 02:44:05;;;;;;;8.67;7.27;;;;;;;15.01;85.45;100168.28;1824579;76;21725;-74
2021/06/08 02:46:32;;;;;;;7.80;6.47;;;;;;;15.00;85.33;100167.49;1827713;78;22185;-74
2021/06/08 02:48:58;;;;;;;8.33;7.33;;;;;;;15.00;85.34;100168.02;1771945;78;21668;-74
2021/06/08 02:51:27;;;;;;;8.03;7.03;;;;;;;15.04;85.39;100167.70;1826099;77;22227;-74
2021/06/08 02:53:54;;;;;;;9.00;7.33;;;;;;;15.11;85.29;100171.34;1826271;76;21664;-74
2021/06/08 02:56:21;;;;;;;9.73;7.60;;;;;;;15.12;85.28;100168.34;1820845;76;22316;-74
2021/06/08 02:58:47;;;;;;;9.87;6.73;;;;;;;15.13;85.15;100174.52;1802481;78;22246;-74
2021/06/08 03:01:16;;;;;;;9.33;7.50;;;;;;;15.15;85.15;100183.10;1772893;78;21690;-74
2021/06/08 03:03:43;;;;;;;9.03;7.60;;;;;;;15.15;84.79;100181.20;1794290;79;21547;-74
2021/06/08 03:06:13;;;;;;;9.13;7.60;;;;;;;15.18;85.07;100186.00;1792144;78;21704;-74
2021/06/08 03:08:51;;;;;;;13.07;8.07;;;;;;;15.21;85.01;100184.06;1822237;76;22278;-74
2021/06/08 03:11:32;;;;;;;8.67;7.53;;;;;;;15.28;84.98;100182.87;1792398;79;21762;-74
2021/06/08 03:13:59;;;;;;;8.40;6.70;;;;;;;15.34;84.87;100174.97;1771610;79;21757;-73
2021/06/08 03:16:27;;;;;;;9.77;6.80;;;;;;;15.35;84.62;100183.28;1792380;78;21563;-73
2021/06/08 03:18:54;;;;;;;12.93;7.73;;;;;;;15.33;84.44;100182.77;1820738;76;21674;-73
2021/06/08 03:21:26;;;;;;;8.43;7.53;;;;;;;15.30;84.42;100177.45;1801851;78;21703;-73
2021/06/08 03:23:55;;;;;;;9.80;8.20;;;;;;;15.34;84.38;100180.34;1833169;76;21718;-74
2021/06/08 03:26:22;;;;;;;8.93;7.70;;;;;;;15.38;84.41;100176.75;1821182;76;21740;-73
2021/06/08 03:28:51;;;;;;;8.40;7.60;;;;;;;15.46;84.33;100175.25;1781509;79;21731;-73
2021/06/08 03:31:17;;;;;;;9.17;8.27;;;;;;;15.55;84.27;100175.36;1793946;79;21708;-73
2021/06/08 03:33:44;;;;;;;8.30;7.17;;;;;;;15.65;84.00;100185.38;1765438;79;21830;-74
2021/06/08 03:36:11;;;;;;;9.37;8.37;;;;;;;15.74;83.78;100190.10;1824433;76;21726;-74
2021/06/08 03:38:37;;;;;;;8.93;7.87;;;;;;;15.79;83.46;100182.70;1783561;79;21698;-73
2021/06/08 03:41:04;;;;;;;12.40;8.20;;;;;;;15.84;83.34;100182.61;1817407;76;21736;-73
2021/06/08 03:43:30;;;;;;;10.63;8.37;;;;;;;15.93;83.23;100180.02;1825540;76;21038;-73
2021/06/08 03:45:57;;;;;;;9.30;7.90;;;;;;;16.03;83.02;100178.45;1828980;76;21718;-73
2021/06/08 03:48:24;;;;;;;8.37;6.73;;;;;;;16.12;82.94;100175.81;1822831;78;21580;-73
2021/06/08 03:50:50;;;;;;;10.00;7.83;;;;;;;16.22;82.44;100175.59;1825880;77;21661;-74
2021/06/08 03:53:18;;;;;;;9.33;8.40;;;;;;;16.29;82.13;100180.59;1793088;78;21065;-74
2021/06/08 03:55:47;;;;;;;10.20;8.13;;;;;;;16.33;81.45;100190.44;1829254;76;21146;-73
2021/06/08 03:58:14;;;;;;;12.70;8.73;;;;;;;16.50;81.50;100181.70;1785403;78;21026;-73
2021/06/08 04:00:41;;;;;;;9.60;8.00;;;;;;;16.50;81.50;100181.70;1819144;77;21066;-74
2021/06/08 04:03:10;;;;;;;8.87;7.93;;;;;;;16.60;81.44;100179.31;1797761;78;21069;-74
2021/06/08 04:05:37;;;;;;;9.50;8.50;;;;;;;16.69;80.95;100187.47;1791532;77;21071;-73
2021/06/08 04:08:05;;;;;;;11.20;8.07;;;;;;;16.80;80.80;100178.05;1815291;77;21094;-73
2021/06/08 04:10:32;;;;;;;10.10;8.97;;;;;;;16.91;80.39;100173.19;1826349;77;21026;-73
2021/06/08 04:13:00;;;;;;;12.00;9.17;;;;;;;16.97;79.81;100180.05;1826630;77;21094;-72
2021/06/08 04:15:26;;;;;;;13.30;9.43;;;;;;;17.02;79.53;100190.73;1826335;77;21072;-74
2021/06/08 04:17:54;;;;;;;10.67;9.03;;;;;;;17.09;79.41;100187.03;1816670;77;21303;-74
2021/06/08 04:20:21;;;;;;;10.03;8.80;;;;;;;17.19;79.30;100192.17;1813121;77;21103;-74
2021/06/08 04:22:47;;;;;;;12.03;10.70;;;;;;;17.30;79.17;100187.29;1825446;76;21160;-74
2021/06/08 04:25:21;;;;;;;11.83;9.07;;;;;;;17.36;78.83;100184.70;1823190;77;21018;-75
2021/06/08 04:27:45;;;;;;;12.40;9.60;;;;;;;17.47;78.79;100190.08;1815648;77;21062;-74
2021/06/08 04:30:14;;;;;;;9.80;8.80;;;;;;;17.57;78.26;100184.40;1815253;76;21033;-73
2021/06/08 04:32:41;;;;;;;10.23;8.87;;;;;;;17.65;77.88;100185.52;1823160;77;21081;-73
2021/06/08 04:35:08;;;;;;;9.57;8.57;;;;;;;17.71;77.26;100194.29;1815550;77;21194;-73
2021/06/08 04:37:36;;;;;;;12.47;9.70;;;;;;;17.76;77.13;100193.59;1826137;77;22195;-74
2021/06/08 04:40:04;;;;;;;10.67;9.03;;;;;;;17.85;76.95;100192.84;1807305;77;21587;-74
2021/06/08 04:42:30;;;;;;;10.77;9.67;;;;;;;17.96;76.47;100194.92;1811045;76;21027;-73
2021/06/08 04:44:57;;;;;;;10.10;9.10;;;;;;;18.06;75.87;100184.36;1826677;77;21163;-74
2021/06/08 04:47:24;;;;;;;11.03;9.67;;;;;;;18.15;75.50;100181.68;1821124;77;21030;-74
2021/06/08 04:49:51;;;;;;;11.27;10.03;;;;;;;18.28;75.24;100188.28;1814558;77;21076;-73
2021/06/08 04:52:17;;;;;;;9.80;8.80;;;;;;;18.39;74.70;100190.11;1791983;78;21127;-73
2021/06/08 04:54:44;;;;;;;11.73;9.33;;;;;;;18.51;74.26;100195.69;1802872;78;21119;-73
2021/06/08 04:57:13;;;;;;;10.33;8.70;;;;;;;18.63;73.60;100195.62;1822279;77;21649;-72
2021/06/08 05:00:12;;;;;;;10.50;9.23;;;;;;;18.69;72.93;100197.84;1812067;77;21046;-74
2021/06/08 05:02:45;;;;;;;10.93;8.50;;;;;;;18.77;72.48;100188.70;1819019;77;21630;-72
2021/06/08 05:05:32;;;;;;;11.07;9.87;;;;;;;18.84;71.88;100192.50;1816842;79;21002;-73
2021/06/08 05:08:24;;;;;;;11.50;10.30;;;;;;;18.90;71.24;100187.16;1821597;77;21022;-73
2021/06/08 05:11:16;;;;;;;12.93;11.30;;;;;;;18.98;71.09;100189.60;1814837;77;21130;-73
2021/06/08 05:13:47;;;;;;;11.93;10.00;;;;;;;19.07;71.01;100193.66;1825084;76;21010;-73
2021/06/08 05:16:15;;;;;;;13.28;10.70;;;;;;;19.09;70.86;100203.05;1828287;76;21018;-73
2021/06/08 05:18:43;;;;;;;9.97;8.73;;;;;;;19.09;70.67;100202.26;1792866;78;21066;-74
2021/06/08 05:21:11;;;;;;;10.27;7.87;;;;;;;19.05;70.53;100193.98;1823110;78;21108;-74
2021/06/08 05:23:38;;;;;;;9.23;8.20;;;;;;;19.01;70.69;100192.23;1823220;78;21105;-74
2021/06/08 05:26:05;;;;;;;11.40;8.40;;;;;;;19.05;70.71;100194.52;1792068;78;21042;-74
2021/06/08 05:28:34;;;;;;;10.40;9.33;;;;;;;19.14;70.45;100192.59;1824076;76;21037;-73
2021/06/08 05:31:01;;;;;;;9.00;8.10;;;;;;;19.26;69.99;100191.94;1826382;76;21005;-73
2021/06/08 05:33:28;;;;;;;11.50;9.67;;;;;;;19.35;69.64;100189.43;1812820;78;21092;-72
2021/06/08 05:35:56;;;;;;;12.07;10.87;;;;;;;19.43;69.48;100191.30;1792926;78;21104;-72
2021/06/08 05:38:32;;;;;;;9.97;8.97;;;;;;;19.56;69.19;100190.05;1799452;78;21659;-74
2021/06/08 05:41:07;;;;;;;11.03;8.07;;;;;;;19.64;68.41;100189.23;1823856;76;21029;-72
2021/06/08 05:43:34;;;;;;;11.77;9.43;;;;;;;19.66;67.98;100184.30;1829600;77;21028;-74
2021/06/08 05:46:02;;;;;;;11.87;10.67;;;;;;;19.76;67.65;100189.91;1824135;76;21077;-74
2021/06/08 05:48:29;;;;;;;10.53;8.83;;;;;;;19.86;67.50;100188.95;1796735;76;21124;-73
2021/06/08 05:50:57;;;;;;;12.33;9.17;;;;;;;19.96;67.17;100186.99;1783516;78;21079;-73
2021/06/08 05:53:24;;;;;;;12.17;10.13;;;;;;;20.04;66.92;100185.59;1812915;76;21145;-73
2021/06/08 05:55:52;;;;;;;12.67;9.10;;;;;;;20.10;66.34;100193.77;1823334;76;21042;-73
2021/06/08 05:58:28;;;;;;;11.20;8.07;;;;;;;20.13;66.25;100188.22;1800882;78;21576;-74
2021/06/08 06:00:56;;;;;;;8.93;7.67;;;;;;;20.19;65.83;100184.77;1781827;78;21600;-73
2021/06/08 06:03:24;;;;;;;8.00;7.07;;;;;;;20.21;65.64;100186.03;1822494;76;21880;-74
2021/06/08 06:05:55;;;;;;;11.23;7.40;;;;;;;20.20;65.29;100185.77;1825709;77;21517;-74
2021/06/08 06:08:25;;;;;;;13.60;6.70;;;;;;;20.22;65.23;100188.17;1817355;76;21081;-73
2021/06/08 06:10:52;;;;;;;9.50;7.27;;;;;;;20.30;65.22;100192.19;1785216;78;21093;-73
2021/06/08 06:13:23;;;;;;;10.43;8.70;;;;;;;20.41;65.05;100191.78;1779833;78;21985;-73
2021/06/08 06:15:49;;;;;;;10.23;7.97;;;;;;;20.50;64.01;100189.77;1838321;76;21104;-73
2021/06/08 06:18:19;;;;;;;9.47;8.03;;;;;;;20.58;63.85;100190.30;1763087;78;21061;-73
2021/06/08 06:20:48;;;;;;;9.60;7.47;;;;;;;20.68;63.27;100196.67;1820975;76;21722;-73
2021/06/08 06:23:21;;;;;;;9.97;7.30;;;;;;;20.75;62.50;100186.63;1793709;78;21755;-73
2021/06/08 06:25:47;;;;;;;8.90;7.33;;;;;;;20.79;61.63;100184.26;1832416;77;22584;-73
2021/06/08 06:28:17;;;;;;;9.27;6.67;;;;;;;20.82;61.31;100185.52;1827021;77;21517;-73
2021/06/08 06:30:44;;;;;;;8.27;6.30;;;;;;;20.83;61.08;100187.13;1786347;78;21096;-72
2021/06/08 06:33:12;;;;;;;10.53;7.33;;;;;;;20.85;60.37;100184.28;1797640;78;21556;-72
2021/06/08 06:35:38;;;;;;;8.00;5.70;;;;;;;20.90;60.21;100179.22;1830309;76;21000;-73
2021/06/08 06:38:07;;;;;;;10.37;6.20;;;;;;;20.93;59.94;100173.69;1794158;78;21136;-73
2021/06/08 06:40:35;;;;;;;10.23;6.23;;;;;;;20.92;59.83;100177.52;1783798;78;21136;-73
2021/06/08 06:43:04;;;;;;;7.00;4.83;;;;;;;20.95;60.03;100175.48;1816301;77;21038;-73
2021/06/08 06:45:32;;;;;;;6.47;5.27;;;;;;;21.03;60.42;100174.61;1842219;77;20999;-74
2021/06/08 06:48:02;;;;;;;8.00;4.97;;;;;;;21.12;59.91;100178.58;1782184;78;21097;-71
2021/06/08 06:50:34;;;;;;;8.60;5.27;;;;;;;21.21;59.65;100177.34;1804249;78;21101;-73
2021/06/08 06:53:00;;;;;;;8.45;5.33;;;;;;;21.29;58.35;100171.03;1799621;78;21002;-73
2021/06/08 06:55:28;;;;;;;10.33;6.03;;;;;;;21.36;58.01;100169.71;1800027;78;21177;-74
2021/06/08 06:57:55;;;;;;;6.27;5.40;;;;;;;21.40;58.21;100165.18;1827676;76;21556;-73
2021/06/08 07:00:23;;;;;;;10.63;5.70;;;;;;;21.45;58.15;100167.66;1823593;76;21062;-74
2021/06/08 07:02:52;;;;;;;13.73;7.23;;;;;;;21.50;57.55;100174.23;1824064;76;21120;-74
2021/06/08 07:05:24;;;;;;;9.17;5.80;;;;;;;21.53;57.04;100170.84;1821168;76;21516;-73
2021/06/08 07:07:51;;;;;;;9.30;5.30;;;;;;;21.56;56.72;100169.37;1827561;76;21528;-87
2021/06/08 07:10:22;;;;;;;6.53;4.67;;;;;;;21.60;57.16;100181.14;1790344;78;21073;-73
2021/06/08 07:12:49;;;;;;;8.63;5.80;;;;;;;21.66;56.81;100172.42;1797388;78;21055;-73
2021/06/08 07:15:16;;;;;;;7.23;5.40;;;;;;;21.74;56.76;100173.42;1795745;78;21080;-74
2021/06/08 07:17:43;;;;;;;7.80;4.97;;;;;;;21.81;56.71;100170.13;1827425;77;21070;-74
2021/06/08 07:20:13;;;;;;;6.57;4.93;;;;;;;21.85;55.67;100173.74;1826898;76;21061;-74
2021/06/08 07:22:40;;;;;;;6.97;4.63;;;;;;;21.87;55.43;100170.13;1823988;77;21019;-74
2021/06/08 07:25:08;;;;;;;10.53;4.37;;;;;;;21.89;54.82;100167.87;1821918;77;21586;-73
2021/06/08 07:27:35;;;;;;;6.80;3.73;;;;;;;21.93;55.37;100177.70;1826070;76;21157;-74
2021/06/08 07:30:04;;;;;;;5.23;3.90;;;;;;;21.99;55.09;100165.46;1819080;76;21061;-74
2021/06/08 07:32:39;;;;;;;6.67;3.70;;;;;;;22.03;54.88;100169.65;1787234;78;21035;-75
2021/06/08 07:35:29;;;;;;;5.73;3.80;;;;;;;22.08;54.01;100163.98;1809342;77;21026;-75
2021/06/08 07:37:57;;;;;;;8.93;4.10;;;;;;;22.16;54.78;100168.52;1833449;76;21470;-73
2021/06/08 07:40:30;;;;;;;7.43;3.77;;;;;;;22.29;53.18;100176.07;1820277;78;21790;-75
2021/06/08 07:43:00;;;;;;;6.23;3.43;;;;;;;22.37;52.71;100169.68;1783821;78;21016;-73
2021/06/08 07:45:41;;;;;;;6.03;3.30;;;;;;;22.41;51.55;100165.72;1788403;78;21648;-73
2021/06/08 07:48:10;;;;;;;6.10;3.73;;;;;;;22.47;51.59;100167.03;1820129;77;21509;-73
2021/06/08 07:50:38;;;;;;;5.17;3.20;;;;;;;22.55;52.11;100173.48;1785035;78;21030;-74
2021/06/08 07:53:13;;;;;;;4.17;3.17;;;;;;;22.61;52.24;100164.72;1819286;76;21086;-74
2021/06/08 07:55:43;;;;;;;4.37;3.10;;;;;;;22.69;51.63;100169.20;1779971;78;21239;-73
2021/06/08 07:58:11;;;;;;;5.67;3.17;;;;;;;22.73;51.34;100162.50;1745936;79;21061;-73
2021/06/08 08:00:38;;;;;;;4.53;2.93;;;;;;;22.80;51.25;100164.62;1782030;78;21097;-74
2021/06/08 08:05:50;;;;;;;4.67;2.60;;;;;;;22.88;50.95;100169.13;1788454;78;21932;-74
2021/06/08 08:08:22;;;;;;;4.30;2.70;;;;;;;22.96;51.53;100164.09;1824816;76;21073;-74
2021/06/08 08:10:48;;;;;;;4.07;2.50;;;;;;;23.05;50.02;100168.81;1819413;77;21056;-74
2021/06/08 08:13:18;;;;;;;3.53;2.47;;;;;;;23.11;49.69;100162.55;1789268;78;21772;-73
2021/06/08 08:15:45;;;;;;;3.53;2.40;;;;;;;23.11;49.89;100163.33;1795117;78;21035;-74
2021/06/08 08:18:12;;;;;;;4.20;2.57;;;;;;;23.16;50.18;100158.17;1830194;77;21102;-74
2021/06/08 08:20:52;;;;;;;3.83;2.80;;;;;;;23.30;49.91;100161.85;1797522;79;21074;-74
2021/06/08 08:23:20;;;;;;;3.40;2.70;;;;;;;23.40;48.71;100157.23;1823472;76;21061;-72
2021/06/08 08:25:47;;;;;;;4.80;3.10;;;;;;;23.45;48.81;100162.97;1822909;76;21600;-74
2021/06/08 08:28:14;;;;;;;5.00;3.83;;;;;;;23.46;49.20;100167.27;1822081;76;21663;-73
2021/06/08 08:30:41;;;;;;;5.07;3.60;;;;;;;23.46;48.98;100168.08;1818456;78;21580;-73
2021/06/08 08:33:07;;;;;;;4.37;3.60;;;;;;;23.46;49.34;100174.08;1817121;77;21152;-74
2021/06/08 08:35:36;;;;;;;4.90;3.47;;;;;;;23.46;49.19;100162.63;1800824;77;21153;-74
2021/06/08 08:38:03;;;;;;;3.63;3.27;;;;;;;23.44;49.24;100164.12;1824225;77;21022;-74
2021/06/08 08:40:49;;;;;;;3.73;3.20;;;;;;;23.47;50.04;100162.84;1819904;77;21122;-73
2021/06/08 08:43:15;;;;;;;5.83;3.53;;;;;;;23.54;48.56;100162.22;1812401;77;21058;-72
2021/06/08 08:45:42;;;;;;;4.00;3.40;;;;;;;23.53;48.36;100170.97;1782627;78;21009;-73
2021/06/08 08:48:09;;;;;;;4.80;3.40;;;;;;;23.51;47.85;100155.53;1802621;78;21053;-73
2021/06/08 08:50:35;;;;;;;5.97;3.37;;;;;;;23.52;48.46;100163.92;1831729;76;21001;-73
2021/06/08 08:53:05;;;;;;;4.93;3.20;;;;;;;23.60;49.27;100155.35;1831124;77;21003;-74
2021/06/08 08:55:35;;;;;;;5.87;3.30;;;;;;;23.74;48.89;100161.15;1826095;77;21116;-72
2021/06/08 08:58:05;;;;;;;3.87;3.00;;;;;;;23.88;47.95;100152.48;1828590;76;20967;-73
2021/06/08 09:00:32;;;;;;;4.10;3.03;;;;;;;23.99;47.23;100154.89;1844157;77;20988;-71
2021/06/08 09:03:01;;;;;;;6.10;3.07;;;;;;;24.03;47.32;100144.83;1830193;76;21018;-73
2021/06/08 09:05:28;;;;;;;5.20;3.03;;;;;;;23.97;47.29;100146.26;1798677;78;21065;-72
2021/06/08 09:07:56;;;;;;;6.33;3.63;;;;;;;23.98;47.67;100145.68;1832662;76;21008;-73
2021/06/08 09:10:22;;;;;;;5.60;3.30;;;;;;;24.06;47.47;100139.24;1830741;77;21061;-73
2021/06/08 09:12:49;;;;;;;5.77;3.30;;;;;;;24.14;47.54;100144.27;1819120;78;21734;-74
2021/06/08 09:15:18;;;;;;;7.97;4.20;;;;;;;24.17;46.68;100138.87;1783304;79;21018;-74
2021/06/08 09:17:44;;;;;;;4.53;3.60;;;;;;;24.21;47.02;100144.41;1794691;78;21084;-73
2021/06/08 09:20:14;;;;;;;3.63;2.90;;;;;;;24.30;47.04;100148.50;1829330;76;21892;-74
2021/06/08 09:22:55;;;;;;;6.47;3.20;;;;;;;24.39;46.90;100156.48;1829449;76;21584;-73
2021/06/08 09:25:39;;;;;;;4.87;3.10;;;;;;;24.47;46.64;100152.75;1794842;78;26655;-73
2021/06/08 09:28:29;;;;;;;4.50;2.93;;;;;;;24.36;46.54;100153.69;1812104;76;21081;-74
2021/06/08 09:31:21;;;;;;;5.03;3.00;;;;;;;24.15;46.77;100159.48;1829313;76;21025;-74
2021/06/08 09:33:52;;;;;;;3.70;2.77;;;;;;;23.90;47.93;100151.56;1790057;78;21648;-74
2021/06/08 09:36:24;;;;;;;4.90;2.50;;;;;;;23.72;48.30;100149.01;1791185;78;21129;-73
2021/06/08 09:39:00;;;;;;;4.27;2.73;;;;;;;23.57;48.81;100137.77;1819924;76;21135;-74
2021/06/08 09:41:45;;;;;;;4.47;3.10;;;;;;;23.51;49.18;100131.58;1823601;77;21068;-74
2021/06/08 09:44:17;;;;;;;3.90;2.43;;;;;;;23.52;49.53;100130.42;1822552;76;21064;-74
2021/06/08 09:46:53;;;;;;;4.37;2.90;;;;;;;23.53;48.94;100132.80;1789763;78;21291;-74
2021/06/08 09:49:34;;;;;;;4.53;3.00;;;;;;;23.54;49.44;100126.78;1819897;77;21047;-74
2021/06/08 09:52:10;;;;;;;5.77;3.77;;;;;;;23.52;51.02;100125.75;1830525;76;21053;-74
2021/06/08 09:54:41;;;;;;;5.97;3.67;;;;;;;23.54;51.47;100123.47;1825933;78;21551;-73
2021/06/08 09:57:22;;;;;;;5.67;3.60;;;;;;;23.77;52.82;100112.72;1827602;76;21054;-73
2021/06/08 10:00:02;;;;;;;4.35;3.30;;;;;;;24.13;52.72;100105.86;1823919;77;21112;-74
2021/06/08 10:02:43;;;;;;;4.50;3.00;;;;;;;24.53;51.96;100102.17;1827081;77;21018;-73
2021/06/08 10:05:28;;;;;;;4.00;2.93;;;;;;;24.87;49.02;100105.09;1822940;76;21081;-74
2021/06/08 10:08:07;;;;;;;4.03;2.87;;;;;;;25.02;47.85;100091.89;1823190;76;21053;-73
2021/06/08 10:10:48;;;;;;;3.73;2.60;;;;;;;25.24;48.30;100095.01;1829115;76;21671;-73
2021/06/08 10:13:18;;;;;;;4.10;2.52;;;;;;;25.38;46.62;100083.48;1825893;76;21105;-74
2021/06/08 10:15:55;;;;;;;4.57;3.00;;;;;;;25.37;45.88;100096.38;1822051;76;20990;-73
2021/06/08 10:18:22;;;;;;;3.30;2.23;;;;;;;25.42;45.31;100097.41;1827613;76;21073;-74
2021/06/08 10:20:51;;;;;;;4.10;2.50;;;;;;;25.36;43.33;100093.41;1787171;79;21049;-71
2021/06/08 10:23:31;;;;;;;5.43;2.13;;;;;;;25.22;43.29;100091.84;1802827;77;21072;-74
2021/06/08 10:26:01;;;;;;;4.03;2.27;;;;;;;25.05;43.57;100084.91;1822585;76;26599;-73
2021/06/08 10:28:28;;;;;;;4.07;2.10;;;;;;;24.89;42.94;100083.68;1826523;77;21046;-74
2021/06/08 10:30:56;;;;;;;3.80;1.90;;;;;;;24.78;43.27;100082.14;1829534;77;21116;-73
2021/06/08 10:33:24;;;;;;;2.90;1.87;;;;;;;24.69;41.65;100071.25;1830102;78;21069;-73
2021/06/08 10:35:53;;;;;;;3.90;1.80;;;;;;;24.61;42.35;100067.58;1821336;76;21097;-71
2021/06/08 10:38:20;;;;;;;3.10;1.83;;;;;;;24.57;42.23;100077.66;1829782;76;21133;-73
2021/06/08 10:40:51;;;;;;;2.07;1.67;;;;;;;24.48;41.51;100066.99;1817530;77;21066;-73
2021/06/08 10:43:25;;;;;;;2.50;1.80;;;;;;;24.37;42.24;100074.16;1803622;78;21814;-72
2021/06/08 10:45:55;;;;;;;4.40;1.87;;;;;;;24.36;42.44;100067.13;1825203;76;21047;-72
2021/06/08 10:48:36;;;;;;;2.77;1.80;;;;;;;24.49;42.50;100068.56;1815698;76;21093;-73
2021/06/08 10:51:11;;;;;;;3.67;1.80;;;;;;;24.67;41.11;100059.88;1823216;76;21137;-73
2021/06/08 10:53:40;;;;;;;3.03;1.77;;;;;;;24.85;39.99;100080.11;1800756;78;21655;-72
2021/06/08 10:56:32;;;;;;;2.60;1.87;;;;;;;24.90;39.95;100068.07;1814571;76;21050;-73
2021/06/08 10:59:04;;;;;;;3.17;1.77;;;;;;;24.82;39.49;100063.66;1794260;78;21851;-73
2021/06/08 11:04:11;;;;;;;3.03;1.80;;;;;;;24.51;40.98;100061.36;1798117;79;21463;-74
2021/06/08 11:06:52;;;;;;;3.30;2.00;;;;;;;24.43;41.66;100072.73;1826513;77;21033;-73
2021/06/08 11:09:29;;;;;;;3.42;2.08;;;;;;;24.50;42.38;100058.42;1792318;78;21041;-73
2021/06/08 11:12:16;;;;;;;4.60;2.50;;;;;;;24.68;41.87;100054.08;1814239;78;21037;-73
2021/06/08 11:14:46;;;;;;;4.40;2.70;;;;;;;24.95;42.62;100054.91;1812464;77;21532;-73
2021/06/08 11:17:30;;;;;;;4.37;2.30;;;;;;;25.32;42.09;100054.89;1818663;77;21097;-73
2021/06/08 11:20:13;;;;;;;3.63;2.30;;;;;;;25.53;40.12;100062.59;1840229;77;21648;-73
2021/06/08 11:22:50;;;;;;;3.52;2.20;;;;;;;25.63;39.85;100056.47;1811659;77;21093;-72
2021/06/08 11:25:43;;;;;;;5.53;2.47;;;;;;;25.72;39.92;100067.92;1778374;79;21027;-73
2021/06/08 11:28:15;;;;;;;3.97;2.20;;;;;;;25.65;40.52;100062.37;1794963;78;21125;-73
2021/06/08 11:30:54;;;;;;;4.03;2.20;;;;;;;25.53;41.16;100072.16;1777747;80;21132;-73
2021/06/08 11:33:33;;;;;;;2.97;2.33;;;;;;;25.32;42.90;100065.23;1780918;78;22622;-73
2021/06/08 11:36:05;;;;;;;4.20;2.47;;;;;;;24.92;45.84;100072.02;1799443;78;21021;-72
2021/06/08 11:38:34;;;;;;;3.60;2.47;;;;;;;24.09;46.97;100075.78;1794338;78;21009;-73
2021/06/08 11:41:08;;;;;;;5.83;2.60;;;;;;;23.41;49.31;100074.31;1812077;78;21522;-73
2021/06/08 11:43:40;;;;;;;4.57;2.90;;;;;;;23.04;52.78;100069.76;1821515;76;21113;-73
2021/06/08 11:46:12;;;;;;;4.83;3.50;;;;;;;22.80;56.32;100068.74;1773110;78;21019;-73